sensor_id;sensor_type;location;lat;lon;timestamp;P1;durP1;ratioP1;P2;durP2;ratioP2
22861;SDS011;11598;50.652;6.172;2023-09-19T00:08:18;8.83;;;1.60;;
22861;SDS011;11598;50.652;6.172;2023-09-19T00:18:23;6.63;;;1.77;;
22861;SDS011;11598;50.652;6.172;2023-09-19T00:28:28;12.30;;;2.00;;
22861;SDS011;11598;50.652;6.172;2023-09-19T00:38:31;9.83;;;2.13;;
22861;SDS011;11598;50.652;6.172;2023-09-19T00:48:32;8.07;;;1.80;;
22861;SDS011;11598;50.652;6.172;2023-09-19T00:58:40;12.52;;;1.85;;
22861;SDS011;11598;50.652;6.172;2023-09-19T01:08:40;9.75;;;1.60;;
22861;SDS011;11598;50.652;6.172;2023-09-19T01:18:52;14.57;;;2.17;;
22861;SDS011;11598;50.652;6.172;2023-09-19T01:39:29;16.02;;;2.72;;
22861;SDS011;11598;50.652;6.172;2023-09-19T01:49:35;10.85;;;2.20;;
22861;SDS011;11598;50.652;6.172;2023-09-19T01:59:48;11.20;;;1.88;;
22861;SDS011;11598;50.652;6.172;2023-09-19T02:09:53;13.88;;;2.00;;
22861;SDS011;11598;50.652;6.172;2023-09-19T02:19:54;13.52;;;2.75;;
22861;SDS011;11598;50.652;6.172;2023-09-19T02:29:55;7.65;;;1.80;;
22861;SDS011;11598;50.652;6.172;2023-09-19T02:39:55;14.45;;;2.30;;
22861;SDS011;11598;50.652;6.172;2023-09-19T02:49:56;13.70;;;2.55;;
22861;SDS011;11598;50.652;6.172;2023-09-19T02:59:56;19.08;;;3.00;;
22861;SDS011;11598;50.652;6.172;2023-09-19T03:09:57;12.73;;;2.47;;
22861;SDS011;11598;50.652;6.172;2023-09-19T03:19:57;10.75;;;1.92;;
22861;SDS011;11598;50.652;6.172;2023-09-19T03:29:57;8.07;;;2.10;;
22861;SDS011;11598;50.652;6.172;2023-09-19T03:39:58;8.15;;;1.95;;
22861;SDS011;11598;50.652;6.172;2023-09-19T03:49:58;14.38;;;3.13;;
22861;SDS011;11598;50.652;6.172;2023-09-19T03:59:58;16.42;;;2.47;;
22861;SDS011;11598;50.652;6.172;2023-09-19T04:09:59;11.82;;;2.22;;
22861;SDS011;11598;50.652;6.172;2023-09-19T04:19:59;10.95;;;2.03;;
22861;SDS011;11598;50.652;6.172;2023-09-19T04:30:00;9.48;;;1.90;;
22861;SDS011;11598;50.652;6.172;2023-09-19T04:40:00;18.38;;;3.03;;
22861;SDS011;11598;50.652;6.172;2023-09-19T04:50:01;12.90;;;2.67;;
22861;SDS011;11598;50.652;6.172;2023-09-19T05:00:01;11.23;;;2.03;;
22861;SDS011;11598;50.652;6.172;2023-09-19T05:10:06;15.02;;;2.80;;
22861;SDS011;11598;50.652;6.172;2023-09-19T05:20:07;20.10;;;3.13;;
22861;SDS011;11598;50.652;6.172;2023-09-19T05:30:15;19.13;;;3.00;;
22861;SDS011;11598;50.652;6.172;2023-09-19T05:40:16;12.77;;;1.90;;
22861;SDS011;11598;50.652;6.172;2023-09-19T06:00:20;13.35;;;2.90;;
22861;SDS011;11598;50.652;6.172;2023-09-19T06:10:24;11.55;;;2.30;;
22861;SDS011;11598;50.652;6.172;2023-09-19T06:20:25;7.65;;;2.10;;
22861;SDS011;11598;50.652;6.172;2023-09-19T06:30:26;13.85;;;2.22;;
22861;SDS011;11598;50.652;6.172;2023-09-19T06:40:29;12.55;;;2.10;;
22861;SDS011;11598;50.652;6.172;2023-09-19T06:50:30;13.57;;;2.45;;
22861;SDS011;11598;50.652;6.172;2023-09-19T07:00:33;15.00;;;2.63;;
22861;SDS011;11598;50.652;6.172;2023-09-19T07:10:36;12.27;;;2.43;;
22861;SDS011;11598;50.652;6.172;2023-09-19T07:20:36;11.15;;;2.05;;
22861;SDS011;11598;50.652;6.172;2023-09-19T07:30:37;15.80;;;2.50;;
22861;SDS011;11598;50.652;6.172;2023-09-19T07:40:37;11.07;;;1.88;;
22861;SDS011;11598;50.652;6.172;2023-09-19T07:50:37;10.30;;;2.20;;
22861;SDS011;11598;50.652;6.172;2023-09-19T08:00:38;13.13;;;2.40;;
22861;SDS011;11598;50.652;6.172;2023-09-19T08:10:38;10.07;;;1.70;;
22861;SDS011;11598;50.652;6.172;2023-09-19T08:20:42;10.27;;;2.03;;
22861;SDS011;11598;50.652;6.172;2023-09-19T08:30:43;8.30;;;1.67;;
22861;SDS011;11598;50.652;6.172;2023-09-19T08:40:43;11.98;;;1.98;;
22861;SDS011;11598;50.652;6.172;2023-09-19T08:50:51;9.55;;;2.00;;
22861;SDS011;11598;50.652;6.172;2023-09-19T09:00:56;10.90;;;1.92;;
22861;SDS011;11598;50.652;6.172;2023-09-19T09:10:58;6.72;;;1.30;;
22861;SDS011;11598;50.652;6.172;2023-09-19T09:20:59;6.45;;;1.35;;
22861;SDS011;11598;50.652;6.172;2023-09-19T09:31:00;5.03;;;1.27;;
22861;SDS011;11598;50.652;6.172;2023-09-19T09:41:07;7.72;;;1.80;;
22861;SDS011;11598;50.652;6.172;2023-09-19T09:51:09;7.15;;;1.88;;
22861;SDS011;11598;50.652;6.172;2023-09-19T10:01:13;5.85;;;1.50;;
22861;SDS011;11598;50.652;6.172;2023-09-19T10:11:15;10.30;;;1.85;;
22861;SDS011;11598;50.652;6.172;2023-09-19T10:21:16;8.15;;;1.77;;
22861;SDS011;11598;50.652;6.172;2023-09-19T10:31:22;8.43;;;1.60;;
22861;SDS011;11598;50.652;6.172;2023-09-19T10:41:25;10.83;;;1.77;;
22861;SDS011;11598;50.652;6.172;2023-09-19T10:51:29;12.57;;;1.97;;
22861;SDS011;11598;50.652;6.172;2023-09-19T11:11:42;8.73;;;1.85;;
22861;SDS011;11598;50.652;6.172;2023-09-19T11:21:51;6.93;;;1.20;;
22861;SDS011;11598;50.652;6.172;2023-09-19T11:31:54;6.85;;;2.00;;
22861;SDS011;11598;50.652;6.172;2023-09-19T11:41:59;7.78;;;1.65;;
22861;SDS011;11598;50.652;6.172;2023-09-19T11:52:01;8.20;;;1.50;;
22861;SDS011;11598;50.652;6.172;2023-09-19T12:02:08;5.03;;;1.05;;
22861;SDS011;11598;50.652;6.172;2023-09-19T12:12:25;7.22;;;1.23;;
22861;SDS011;11598;50.652;6.172;2023-09-19T12:22:41;5.22;;;1.27;;
22861;SDS011;11598;50.652;6.172;2023-09-19T12:32:43;5.65;;;1.30;;
22861;SDS011;11598;50.652;6.172;2023-09-19T12:42:44;4.60;;;0.80;;
22861;SDS011;11598;50.652;6.172;2023-09-19T12:52:46;5.18;;;0.77;;
22861;SDS011;11598;50.652;6.172;2023-09-19T13:13:24;4.57;;;0.80;;
22861;SDS011;11598;50.652;6.172;2023-09-19T13:23:27;3.92;;;0.85;;
22861;SDS011;11598;50.652;6.172;2023-09-19T13:33:28;3.55;;;0.80;;
22861;SDS011;11598;50.652;6.172;2023-09-19T13:43:28;4.22;;;0.93;;
22861;SDS011;11598;50.652;6.172;2023-09-19T13:53:29;4.13;;;0.70;;
22861;SDS011;11598;50.652;6.172;2023-09-19T14:03:29;4.95;;;1.25;;
22861;SDS011;11598;50.652;6.172;2023-09-19T14:13:29;7.63;;;0.85;;
22861;SDS011;11598;50.652;6.172;2023-09-19T14:23:39;6.07;;;0.90;;
22861;SDS011;11598;50.652;6.172;2023-09-19T14:33:39;5.25;;;0.90;;
22861;SDS011;11598;50.652;6.172;2023-09-19T14:43:40;4.80;;;0.80;;
22861;SDS011;11598;50.652;6.172;2023-09-19T14:53:40;3.50;;;0.75;;
22861;SDS011;11598;50.652;6.172;2023-09-19T15:03:43;4.50;;;1.00;;
22861;SDS011;11598;50.652;6.172;2023-09-19T15:13:45;3.03;;;0.80;;
22861;SDS011;11598;50.652;6.172;2023-09-19T15:23:46;4.78;;;0.90;;
22861;SDS011;11598;50.652;6.172;2023-09-19T15:33:46;6.07;;;0.93;;
22861;SDS011;11598;50.652;6.172;2023-09-19T15:43:47;4.30;;;0.80;;
22861;SDS011;11598;50.652;6.172;2023-09-19T15:53:48;8.68;;;1.13;;
22861;SDS011;11598;50.652;6.172;2023-09-19T16:03:53;4.07;;;1.00;;
22861;SDS011;11598;50.652;6.172;2023-09-19T16:13:57;6.32;;;0.82;;
22861;SDS011;11598;50.652;6.172;2023-09-19T16:23:58;7.70;;;1.08;;
22861;SDS011;11598;50.652;6.172;2023-09-19T16:33:59;5.38;;;0.90;;
22861;SDS011;11598;50.652;6.172;2023-09-19T16:44:00;3.72;;;0.57;;
22861;SDS011;11598;50.652;6.172;2023-09-19T16:54:00;4.90;;;0.70;;
22861;SDS011;11598;50.652;6.172;2023-09-19T17:04:01;3.92;;;1.00;;
22861;SDS011;11598;50.652;6.172;2023-09-19T17:14:02;4.20;;;0.80;;
22861;SDS011;11598;50.652;6.172;2023-09-19T17:24:03;4.03;;;0.80;;
22861;SDS011;11598;50.652;6.172;2023-09-19T17:34:07;4.20;;;0.95;;
22861;SDS011;11598;50.652;6.172;2023-09-19T17:44:08;3.22;;;0.80;;
22861;SDS011;11598;50.652;6.172;2023-09-19T17:54:11;5.53;;;1.00;;
22861;SDS011;11598;50.652;6.172;2023-09-19T18:04:14;5.33;;;1.00;;
22861;SDS011;11598;50.652;6.172;2023-09-19T18:14:15;3.38;;;0.85;;
22861;SDS011;11598;50.652;6.172;2023-09-19T18:24:17;6.03;;;1.10;;
22861;SDS011;11598;50.652;6.172;2023-09-19T18:34:17;7.13;;;1.00;;
22861;SDS011;11598;50.652;6.172;2023-09-19T18:44:19;4.82;;;1.17;;
22861;SDS011;11598;50.652;6.172;2023-09-19T18:54:19;6.65;;;0.85;;
22861;SDS011;11598;50.652;6.172;2023-09-19T19:04:19;7.50;;;1.40;;
22861;SDS011;11598;50.652;6.172;2023-09-19T19:14:20;6.40;;;1.10;;
22861;SDS011;11598;50.652;6.172;2023-09-19T19:24:20;7.57;;;1.00;;
22861;SDS011;11598;50.652;6.172;2023-09-19T19:34:22;5.53;;;1.25;;
22861;SDS011;11598;50.652;6.172;2023-09-19T19:44:24;6.65;;;1.30;;
22861;SDS011;11598;50.652;6.172;2023-09-19T19:54:26;4.28;;;1.15;;
22861;SDS011;11598;50.652;6.172;2023-09-19T20:04:26;7.25;;;1.52;;
22861;SDS011;11598;50.652;6.172;2023-09-19T20:14:28;6.10;;;1.30;;
22861;SDS011;11598;50.652;6.172;2023-09-19T20:24:29;6.43;;;1.55;;
22861;SDS011;11598;50.652;6.172;2023-09-19T20:34:29;8.18;;;1.45;;
22861;SDS011;11598;50.652;6.172;2023-09-19T20:44:30;4.53;;;1.30;;
22861;SDS011;11598;50.652;6.172;2023-09-19T20:54:30;4.40;;;1.20;;
22861;SDS011;11598;50.652;6.172;2023-09-19T21:04:31;4.85;;;1.50;;
22861;SDS011;11598;50.652;6.172;2023-09-19T21:14:31;6.22;;;1.50;;
22861;SDS011;11598;50.652;6.172;2023-09-19T21:24:33;8.48;;;1.70;;
22861;SDS011;11598;50.652;6.172;2023-09-19T21:34:37;6.85;;;1.08;;
22861;SDS011;11598;50.652;6.172;2023-09-19T21:44:37;5.60;;;1.27;;
22861;SDS011;11598;50.652;6.172;2023-09-19T21:54:37;4.55;;;1.20;;
22861;SDS011;11598;50.652;6.172;2023-09-19T22:04:38;8.50;;;1.63;;
22861;SDS011;11598;50.652;6.172;2023-09-19T22:14:40;6.93;;;1.42;;
22861;SDS011;11598;50.652;6.172;2023-09-19T22:24:40;5.72;;;1.20;;
22861;SDS011;11598;50.652;6.172;2023-09-19T22:34:41;7.90;;;2.17;;
22861;SDS011;11598;50.652;6.172;2023-09-19T22:44:41;7.40;;;1.52;;
22861;SDS011;11598;50.652;6.172;2023-09-19T22:54:45;5.17;;;1.60;;
22861;SDS011;11598;50.652;6.172;2023-09-19T23:04:45;7.80;;;1.87;;
22861;SDS011;11598;50.652;6.172;2023-09-19T23:14:45;8.40;;;1.70;;
22861;SDS011;11598;50.652;6.172;2023-09-19T23:24:46;7.93;;;1.80;;
22861;SDS011;11598;50.652;6.172;2023-09-19T23:34:49;5.67;;;1.60;;
22861;SDS011;11598;50.652;6.172;2023-09-19T23:44:50;4.68;;;1.40;;
22861;SDS011;11598;50.652;6.172;2023-09-19T23:54:50;6.68;;;1.77;;
